Time;durP1;ratioP1;P1;durP2;ratioP2;P2;SDS_P1;SDS_P2;PMS_P1;PMS_P2;Temp;Humidity;BMP_temperature;BMP_pressure;BME280_temperature;BME280_humidity;BME280_pressure;Samples;Min_cycle;Max_cycle;Signal;HPM_P1;HPM_P2
2021/05/11 00:01:55;;;;;;;0.30;0.20;;;;;;;14.39;100.00;99577.59;5023152;28;21072;-53
2021/05/11 00:04:22;;;;;;;0.40;0.20;;;;;;;14.43;100.00;99577.34;5004516;28;20495;-50
2021/05/11 00:06:48;;;;;;;0.40;0.20;;;;;;;14.50;100.00;99575.22;5014781;28;20507;-50
2021/05/11 00:09:15;;;;;;;1.70;0.93;;;;;;;14.38;100.00;99558.00;5014917;28;20987;-50
2021/05/11 00:11:41;;;;;;;0.40;0.20;;;;;;;14.61;100.00;99555.88;5014619;28;20510;-50
2021/05/11 00:14:09;;;;;;;0.30;0.20;;;;;;;14.56;100.00;99549.94;5014680;28;20589;-50
2021/05/11 00:16:35;;;;;;;0.40;0.20;;;;;;;14.48;100.00;99553.91;5014763;28;20455;-50
2021/05/11 00:19:05;;;;;;;0.40;0.20;;;;;;;14.35;100.00;99554.66;5010330;28;20962;-50
2021/05/11 00:21:31;;;;;;;0.30;0.20;;;;;;;14.39;100.00;99551.72;5006203;28;20494;-50
2021/05/11 00:23:58;;;;;;;0.40;0.20;;;;;;;14.39;100.00;99549.06;4996638;28;20472;-50
2021/05/11 00:26:24;;;;;;;0.30;0.20;;;;;;;14.31;100.00;99559.31;5014736;28;20471;-50
2021/05/11 00:28:50;;;;;;;2.43;2.00;;;;;;;14.26;100.00;99555.19;5014300;28;20510;-50
2021/05/11 00:31:16;;;;;;;0.40;0.20;;;;;;;14.33;100.00;99567.25;4997054;28;20527;-50
2021/05/11 00:33:42;;;;;;;0.40;0.20;;;;;;;14.33;100.00;99581.47;5014056;28;20576;-50
2021/05/11 00:36:08;;;;;;;0.40;0.20;;;;;;;14.30;100.00;99570.09;5014185;28;20503;-50
2021/05/11 00:38:35;;;;;;;0.40;0.20;;;;;;;14.57;100.00;99546.31;5013950;28;20475;-50
2021/05/11 00:41:01;;;;;;;0.40;0.30;;;;;;;14.70;100.00;99515.25;5014406;28;20455;-50
2021/05/11 00:43:27;;;;;;;0.40;0.20;;;;;;;14.79;100.00;99528.94;5014152;28;20496;-50
2021/05/11 00:45:53;;;;;;;0.60;0.60;;;;;;;14.58;100.00;99532.00;5013924;28;20511;-50
2021/05/11 00:48:19;;;;;;;0.33;0.20;;;;;;;14.49;100.00;99534.22;5008522;28;20449;-50
2021/05/11 00:50:46;;;;;;;0.40;0.20;;;;;;;14.44;100.00;99527.44;5006281;28;20456;-50
2021/05/11 00:53:12;;;;;;;0.30;0.20;;;;;;;14.45;100.00;99543.38;4996371;28;20515;-50
2021/05/11 00:55:39;;;;;;;0.30;0.20;;;;;;;14.33;100.00;99544.03;5013918;28;20976;-50
2021/05/11 00:58:06;;;;;;;0.40;0.20;;;;;;;14.29;100.00;99547.84;5000782;28;20539;-50
2021/05/11 01:00:32;;;;;;;0.40;0.20;;;;;;;14.31;100.00;99537.06;5013971;28;20498;-50
2021/05/11 01:02:58;;;;;;;0.33;0.20;;;;;;;14.29;100.00;99539.81;5019074;28;20524;-50
2021/05/11 01:05:25;;;;;;;0.30;0.20;;;;;;;14.35;100.00;99533.25;5006484;28;20923;-50
2021/05/11 01:07:51;;;;;;;0.40;0.20;;;;;;;14.39;100.00;99540.16;5013302;28;20456;-50
2021/05/11 01:10:17;;;;;;;0.40;0.40;;;;;;;14.31;100.00;99537.06;5013825;28;20453;-50
2021/05/11 01:12:45;;;;;;;0.70;0.70;;;;;;;14.30;100.00;99543.34;5013528;28;20473;-50
2021/05/11 01:15:12;;;;;;;0.33;0.20;;;;;;;14.27;100.00;99549.75;5013436;28;20448;-50
2021/05/11 01:17:39;;;;;;;0.40;0.30;;;;;;;14.20;100.00;99538.50;5013057;28;20941;-49
2021/05/11 01:20:14;;;;;;;0.40;0.20;;;;;;;14.20;100.00;99532.31;5000974;28;20453;-50
2021/05/11 01:25:23;;;;;;;0.40;0.30;;;;;;;14.17;100.00;99509.28;5007987;28;20472;-50
2021/05/11 01:28:12;;;;;;;0.40;0.20;;;;;;;14.15;100.00;99503.16;5014329;28;20487;-50
2021/05/11 01:43:54;;;;;;;0.40;0.20;;;;;;;14.21;100.00;99496.59;5013129;28;20554;-50
2021/05/11 01:44:40;;;;;;;0.40;0.20;;;;;;;14.19;100.00;99501.19;5012772;28;20487;-50
2021/05/11 01:47:18;;;;;;;0.40;0.20;;;;;;;14.18;100.00;99496.78;5012772;28;20453;-50
2021/05/11 02:24:35;;;;;;;0.30;0.20;;;;;;;14.11;100.00;99471.34;5012385;28;20448;-52
2021/05/11 02:27:01;;;;;;;0.40;0.30;;;;;;;14.04;100.00;99449.44;5012693;28;20449;-52
2021/05/11 02:29:27;;;;;;;0.30;0.20;;;;;;;13.98;100.00;99447.13;5012227;28;20453;-52
2021/05/11 02:31:53;;;;;;;0.40;0.20;;;;;;;13.98;100.00;99435.56;5012048;28;20460;-52
2021/05/11 02:34:20;;;;;;;0.40;0.20;;;;;;;14.01;100.00;99419.38;5012090;28;20448;-52
2021/05/11 02:36:46;;;;;;;0.50;0.47;;;;;;;13.98;100.00;99425.75;5011989;28;20490;-52
2021/05/11 02:39:13;;;;;;;0.30;0.20;;;;;;;13.86;100.00;99423.78;5004241;28;20548;-52
2021/05/11 02:41:41;;;;;;;0.30;0.20;;;;;;;13.83;100.00;99431.94;5004967;28;20497;-52
2021/05/11 02:44:08;;;;;;;0.40;0.20;;;;;;;13.85;100.00;99444.28;5013509;23;21004;-54
2021/05/11 02:46:34;;;;;;;0.40;0.30;;;;;;;13.91;100.00;99457.28;5006079;28;20460;-54
2021/05/11 02:49:02;;;;;;;0.30;0.20;;;;;;;13.91;100.00;99445.75;4992601;28;20460;-53
2021/05/11 02:51:28;;;;;;;0.30;0.20;;;;;;;13.91;100.00;99446.59;4992625;28;20454;-53
2021/05/11 02:53:54;;;;;;;0.30;0.20;;;;;;;13.90;100.00;99447.56;4992328;28;20504;-53
2021/05/11 02:56:21;;;;;;;0.40;0.30;;;;;;;13.75;100.00;99456.41;4992744;28;20476;-53
2021/05/11 02:58:50;;;;;;;0.40;0.20;;;;;;;13.77;100.00;99459.88;4974792;28;20969;-54
2021/05/11 03:01:17;;;;;;;0.40;0.20;;;;;;;13.68;100.00;99460.34;4996062;28;20445;-53
2021/05/11 03:03:44;;;;;;;0.40;0.20;;;;;;;13.66;100.00;99474.75;4983017;28;20497;-54
2021/05/11 03:06:11;;;;;;;0.40;0.40;;;;;;;13.60;100.00;99473.28;4975617;28;20492;-53
2021/05/11 03:08:41;;;;;;;0.33;0.20;;;;;;;13.57;100.00;99455.63;4992054;28;20954;-54
2021/05/11 03:11:07;;;;;;;0.40;0.20;;;;;;;13.53;100.00;99455.84;4992086;28;20521;-54
2021/05/11 03:13:33;;;;;;;0.40;0.20;;;;;;;13.50;100.00;99475.56;4992098;28;20580;-54
2021/05/11 03:16:00;;;;;;;0.50;0.50;;;;;;;13.58;100.00;99491.19;4992006;28;20869;-54
2021/05/11 03:18:26;;;;;;;0.30;0.20;;;;;;;13.63;100.00;99481.13;4992124;28;20465;-54
2021/05/11 03:20:52;;;;;;;0.40;0.20;;;;;;;13.66;100.00;99474.75;4991924;28;20461;-54
2021/05/11 03:23:18;;;;;;;0.30;0.20;;;;;;;13.83;100.00;99474.69;4991899;28;20941;-54
2021/05/11 03:25:45;;;;;;;0.30;0.20;;;;;;;13.70;100.00;99469.16;4992348;28;20884;-54
2021/05/11 03:28:11;;;;;;;0.33;0.20;;;;;;;13.64;100.00;99464.16;4992301;28;20461;-54
2021/05/11 03:30:40;;;;;;;0.40;0.30;;;;;;;13.69;100.00;99459.41;4992177;28;20468;-54
2021/05/11 03:33:06;;;;;;;0.30;0.20;;;;;;;13.88;100.00;99443.25;4991949;28;20955;-53
2021/05/11 03:35:33;;;;;;;0.30;0.20;;;;;;;13.76;100.00;99442.13;4974649;28;20458;-52
2021/05/11 03:37:59;;;;;;;0.40;0.30;;;;;;;13.70;100.00;99450.44;4992194;28;20449;-53
2021/05/11 03:40:25;;;;;;;0.63;0.63;;;;;;;13.66;100.00;99456.06;4992023;28;20456;-53
2021/05/11 03:42:55;;;;;;;1.77;1.70;;;;;;;13.48;100.00;99449.91;4991729;28;20493;-53
2021/05/11 03:45:28;;;;;;;0.30;0.20;;;;;;;13.44;100.00;99440.34;4974523;28;20446;-53
2021/05/11 03:47:55;;;;;;;0.30;0.20;;;;;;;13.42;100.00;99450.22;4991682;28;20449;-53
2021/05/11 03:50:22;;;;;;;0.30;0.20;;;;;;;13.53;100.00;99455.84;4991910;28;20468;-53
2021/05/11 03:52:49;;;;;;;0.40;0.30;;;;;;;13.51;100.00;99463.09;4992224;28;20472;-52
2021/05/11 03:55:16;;;;;;;0.30;0.20;;;;;;;13.50;100.00;99470.22;4991958;28;20794;-53
2021/05/11 03:57:42;;;;;;;0.30;0.20;;;;;;;13.53;100.00;99474.53;4991673;28;20454;-53
2021/05/11 04:00:10;;;;;;;0.30;0.20;;;;;;;13.59;100.00;99469.75;4991891;28;20450;-53
2021/05/11 04:02:37;;;;;;;0.30;0.20;;;;;;;13.66;100.00;99469.41;5002017;28;20556;-53
2021/05/11 04:05:08;;;;;;;0.30;0.20;;;;;;;13.75;100.00;99461.75;4990981;28;20487;-53
2021/05/11 04:07:36;;;;;;;0.40;0.20;;;;;;;14.29;100.00;99451.59;4991148;28;20918;-53
2021/05/11 04:10:11;;;;;;;0.30;0.20;;;;;;;13.99;100.00;99453.34;4991566;28;20571;-53
2021/05/11 04:18:04;;;;;;;0.30;0.20;;;;;;;13.84;100.00;99426.53;4994905;28;21005;-53
2021/05/11 04:20:31;;;;;;;0.30;0.20;;;;;;;13.71;100.00;99435.31;4995396;28;20507;-53
2021/05/11 04:22:58;;;;;;;0.30;0.30;;;;;;;13.74;100.00;99427.97;4994892;28;20525;-53
2021/05/11 04:25:24;;;;;;;0.30;0.20;;;;;;;13.93;100.00;99407.28;4994877;28;20453;-53
2021/05/11 04:27:51;;;;;;;0.30;0.20;;;;;;;13.97;100.00;99391.09;4994831;28;20826;-53
2021/05/11 04:30:19;;;;;;;0.40;0.20;;;;;;;13.91;100.00;99379.81;4994987;28;20520;-53
2021/05/11 04:32:47;;;;;;;0.30;0.30;;;;;;;14.43;100.00;99365.25;4994919;28;20469;-55
2021/05/11 04:35:14;;;;;;;0.30;0.20;;;;;;;14.35;100.00;99359.47;4994608;28;20500;-54
2021/05/11 04:37:40;;;;;;;0.30;0.20;;;;;;;14.16;100.00;99365.91;4994940;28;20461;-54
2021/05/11 04:40:08;;;;;;;0.30;0.20;;;;;;;14.05;100.00;99364.78;4994755;28;20449;-54
2021/05/11 04:42:34;;;;;;;0.30;0.20;;;;;;;13.92;100.00;99383.34;4994492;28;20573;-54
2021/05/11 04:45:04;;;;;;;0.70;0.70;;;;;;;13.96;100.00;99384.03;4994835;28;20453;-54
2021/05/11 04:47:48;;;;;;;0.30;0.20;;;;;;;14.77;100.00;99382.81;4994857;28;20519;-54
2021/05/11 04:50:17;;;;;;;0.40;0.20;;;;;;;15.34;100.00;99389.09;4994801;28;20450;-54
2021/05/11 04:52:44;;;;;;;0.30;0.20;;;;;;;14.91;100.00;99400.72;4994808;28;20473;-53
2021/05/11 04:55:12;;;;;;;0.30;0.20;;;;;;;14.78;100.00;99411.28;4977705;28;20777;-53
2021/05/11 04:57:39;;;;;;;0.30;0.20;;;;;;;14.64;100.00;99405.91;4994555;28;20457;-53
2021/05/11 05:00:08;;;;;;;0.40;0.20;;;;;;;14.42;100.00;99409.84;4994708;28;20458;-53
2021/05/11 05:02:38;;;;;;;0.30;0.20;;;;;;;14.31;100.00;99416.75;5005457;28;20484;-53
2021/05/11 05:05:05;;;;;;;0.30;0.20;;;;;;;14.27;100.00;99415.22;4993938;28;20534;-54
2021/05/11 05:07:37;;;;;;;0.40;0.20;;;;;;;14.56;100.00;99410.88;4994537;28;20508;-53
2021/05/11 05:10:05;;;;;;;0.30;0.20;;;;;;;14.41;100.00;99425.97;4994964;28;20453;-54
2021/05/11 05:12:32;;;;;;;0.30;0.20;;;;;;;14.33;100.00;99430.88;4994275;28;20814;-54
2021/05/11 05:14:59;;;;;;;0.30;0.20;;;;;;;14.20;100.00;99431.59;4994681;28;20453;-53
2021/05/11 05:17:26;;;;;;;0.30;0.20;;;;;;;14.08;100.00;99439.44;4994350;28;20448;-53
2021/05/11 05:19:53;;;;;;;0.30;0.20;;;;;;;14.20;100.00;99430.72;4994117;28;20561;-53
2021/05/11 05:22:20;;;;;;;0.40;0.20;;;;;;;14.17;100.00;99434.44;4994486;28;20547;-53
2021/05/11 05:24:58;;;;;;;0.40;0.20;;;;;;;14.20;100.00;99436.06;4995359;28;20457;-53
2021/05/11 05:27:27;;;;;;;0.30;0.20;;;;;;;14.46;100.00;99448.84;4993644;28;20445;-53
2021/05/11 05:29:53;;;;;;;0.30;0.20;;;;;;;14.98;100.00;99448.44;4994501;28;21033;-52
2021/05/11 05:32:20;;;;;;;0.30;0.20;;;;;;;14.76;100.00;99450.66;4981958;28;20524;-52
2021/05/11 05:34:47;;;;;;;0.30;0.20;;;;;;;14.76;100.00;99448.00;4994603;28;20476;-52
2021/05/11 05:37:13;;;;;;;0.30;0.20;;;;;;;14.90;100.00;99447.16;4994988;28;20453;-53
2021/05/11 05:39:43;;;;;;;0.30;0.20;;;;;;;14.91;100.00;99454.25;4994505;28;20488;-52
2021/05/11 05:42:10;;;;;;;0.37;0.20;;;;;;;14.75;100.00;99467.66;4994453;28;20511;-52
2021/05/11 05:44:36;;;;;;;0.97;0.97;;;;;;;14.73;100.00;99458.88;4994041;28;20974;-53
2021/05/11 05:47:03;;;;;;;0.30;0.20;;;;;;;14.64;100.00;99454.91;4994322;28;20456;-53
2021/05/11 05:49:44;;;;;;;0.77;0.77;;;;;;;14.65;100.00;99447.75;4994200;28;20453;-53
2021/05/11 05:52:17;;;;;;;0.30;0.20;;;;;;;14.86;100.00;99440.28;4994774;28;20504;-53
2021/05/11 05:54:45;;;;;;;0.30;0.20;;;;;;;14.72;100.00;99430.41;4994207;28;20468;-53
2021/05/11 05:57:12;;;;;;;0.30;0.20;;;;;;;14.64;100.00;99435.34;4994415;28;20460;-52
2021/05/11 05:59:42;;;;;;;0.40;0.30;;;;;;;14.62;100.00;99437.25;4994136;28;20509;-53
2021/05/11 06:02:15;;;;;;;2.87;1.13;;;;;;;14.67;100.00;99421.81;5004888;28;20536;-53
2021/05/11 06:04:43;;;;;;;0.40;0.20;;;;;;;14.76;100.00;99422.09;4981519;28;20970;-53
2021/05/11 06:07:09;;;;;;;0.30;0.20;;;;;;;14.63;100.00;99404.19;4994471;28;20520;-53
2021/05/11 06:09:36;;;;;;;0.30;0.20;;;;;;;14.69;100.00;99409.19;4994027;28;20946;-53
2021/05/11 06:12:13;;;;;;;1.57;1.40;;;;;;;14.64;100.00;99409.44;4993947;28;20453;-53
2021/05/11 06:17:19;;;;;;;0.30;0.20;;;;;;;14.71;100.00;99415.31;4993624;28;21112;-53
2021/05/11 06:19:55;;;;;;;0.30;0.20;;;;;;;14.67;100.00;99429.84;4985526;28;20453;-53
2021/05/11 06:22:22;;;;;;;0.30;0.20;;;;;;;14.73;100.00;99424.97;4993452;28;20791;-53
2021/05/11 06:24:48;;;;;;;0.30;0.20;;;;;;;14.68;100.00;99439.56;4993515;28;20875;-53
2021/05/11 06:27:15;;;;;;;0.40;0.20;;;;;;;14.63;100.00;99439.81;4994001;28;20512;-53
2021/05/11 06:29:44;;;;;;;0.30;0.20;;;;;;;14.70;100.00;99440.34;4993628;28;20453;-53
2021/05/11 06:32:12;;;;;;;0.30;0.20;;;;;;;14.63;100.00;99438.97;4993471;28;20458;-53
2021/05/11 06:34:45;;;;;;;0.30;0.20;;;;;;;14.78;100.00;99422.00;4993571;28;20477;-53
2021/05/11 06:37:11;;;;;;;0.30;0.20;;;;;;;14.71;100.00;99418.84;4981100;28;20442;-53
2021/05/11 06:39:43;;;;;;;0.30;0.20;;;;;;;14.74;100.00;99431.16;4975847;28;20810;-53
2021/05/11 06:42:10;;;;;;;0.30;0.20;;;;;;;14.68;100.00;99431.56;4993523;28;20445;-53
2021/05/11 06:45:02;;;;;;;0.30;0.20;;;;;;;14.65;100.00;99437.06;4993050;28;20516;-53
2021/05/11 06:55:07;;;;;;;0.30;0.20;;;;;;;14.64;100.00;99454.06;4980646;28;20445;-53
2021/05/11 06:57:33;;;;;;;0.30;0.20;;;;;;;14.68;100.00;99439.56;4992964;28;20507;-53
2021/05/11 07:00:00;;;;;;;0.30;0.20;;;;;;;14.56;100.00;99442.97;4993047;28;20468;-53
2021/05/11 07:02:29;;;;;;;0.60;0.60;;;;;;;14.64;100.00;99438.00;5004182;28;20452;-53
2021/05/11 07:04:58;;;;;;;0.30;0.20;;;;;;;14.68;100.00;99432.41;4993258;28;20453;-53
2021/05/11 07:07:26;;;;;;;0.63;0.63;;;;;;;14.74;100.00;99420.47;4993216;28;20457;-53
2021/05/11 07:15:09;;;;;;;0.30;0.20;;;;;;;14.73;100.00;99400.88;4993231;28;20450;-53
2021/05/11 07:17:35;;;;;;;0.40;0.20;;;;;;;14.69;100.00;99396.69;4992848;28;20810;-53
2021/05/11 07:20:03;;;;;;;0.30;0.20;;;;;;;14.99;100.00;99371.69;4992892;28;20457;-53
2021/05/11 07:22:29;;;;;;;0.30;0.20;;;;;;;15.11;100.00;99358.41;4992604;28;20516;-53
2021/05/11 07:24:58;;;;;;;0.30;0.20;;;;;;;15.06;100.00;99363.16;4992711;28;20931;-53
2021/05/11 07:29:58;;;;;;;0.30;0.20;;;;;;;15.47;100.00;99362.38;4992874;28;20459;-53
2021/05/11 07:32:25;;;;;;;0.40;0.20;;;;;;;15.23;100.00;99363.97;4992658;28;20939;-52
2021/05/11 07:34:54;;;;;;;0.30;0.20;;;;;;;15.09;100.00;99371.03;4992746;28;20533;-53
2021/05/11 07:37:21;;;;;;;0.30;0.20;;;;;;;15.15;100.00;99375.13;4992683;28;20485;-53
2021/05/11 07:39:48;;;;;;;0.30;0.20;;;;;;;15.07;100.00;99362.22;4992595;28;20456;-53
2021/05/11 07:42:14;;;;;;;0.30;0.20;;;;;;;15.52;100.00;99362.97;4991644;28;20457;-53
2021/05/11 07:44:47;;;;;;;0.30;0.20;;;;;;;15.11;100.00;99357.56;4992393;28;20999;-53
2021/05/11 07:47:20;;;;;;;0.30;0.20;;;;;;;14.92;100.00;99363.16;4993031;28;21010;-53
2021/05/11 08:09:53;;;;;;;0.30;0.20;;;;;;;15.13;100.00;99389.56;4996055;28;20462;-53
2021/05/11 08:16:37;;;;;;;0.40;0.20;;;;;;;14.90;100.00;99396.31;4995659;28;20989;-52
2021/05/11 08:22:02;;;;;;;0.40;0.20;;;;;;;14.75;100.00;99409.69;4995926;28;20799;-52
2021/05/11 08:29:56;;;;;;;0.30;0.20;;;;;;;14.99;100.00;99410.00;4995374;28;20934;-52
2021/05/11 08:32:23;;;;;;;0.30;0.20;;;;;;;15.39;100.00;99404.88;4995543;28;20535;-52
2021/05/11 08:34:49;;;;;;;0.40;0.20;;;;;;;15.23;100.00;99393.41;4995436;28;20450;-52
2021/05/11 08:37:16;;;;;;;0.30;0.20;;;;;;;15.44;100.00;99386.69;4995514;28;20528;-52
2021/05/11 08:39:46;;;;;;;0.30;0.20;;;;;;;15.58;100.00;99405.44;4995264;28;20513;-52
2021/05/11 08:42:13;;;;;;;0.40;0.30;;;;;;;15.55;100.00;99402.09;4995447;28;20457;-52
2021/05/11 08:44:40;;;;;;;0.30;0.20;;;;;;;15.93;100.00;99400.53;5016086;23;20926;-56
2021/05/11 08:47:07;;;;;;;0.33;0.20;;;;;;;15.51;100.00;99380.00;5014719;28;20452;-55
2021/05/11 08:49:34;;;;;;;0.30;0.20;;;;;;;15.39;100.00;99372.75;5011246;28;20511;-55
2021/05/11 08:52:29;;;;;;;0.30;0.20;;;;;;;15.38;100.00;99379.94;5014055;28;20459;-55
2021/05/11 09:06:15;;;;;;;0.30;0.20;;;;;;;15.70;100.00;99337.72;4991150;28;20464;-55
2021/05/11 09:26:01;;;;;;;0.40;0.20;;;;;;;15.38;100.00;99337.06;4940471;29;20447;-55
2021/05/11 09:28:38;;;;;;;0.30;0.20;;;;;;;15.24;100.00;99352.28;4990779;28;20449;-55
2021/05/11 09:32:22;;;;;;;0.30;0.20;;;;;;;15.34;100.00;99364.13;4994228;28;20931;-55
2021/05/11 09:34:31;;;;;;;0.30;0.20;;;;;;;15.28;100.00;99357.34;4966049;28;20878;-55
2021/05/11 10:00:00;;;;;;;0.30;0.20;;;;;;;15.35;100.00;99440.81;4993954;28;20449;-55
2021/05/11 10:37:59;;;;;;;0.30;0.20;;;;;;;15.49;100.00;99431.94;4990763;28;20848;-55
2021/05/11 10:48:19;;;;;;;0.30;0.20;;;;;;;15.36;100.00;99454.16;4986292;28;20454;-56
2021/05/11 10:51:12;;;;;;;0.30;0.20;;;;;;;15.36;100.00;99456.81;4984603;28;20453;-55
2021/05/11 10:54:04;;;;;;;0.30;0.20;;;;;;;15.73;100.00;99448.31;4985033;28;20473;-56
2021/05/11 10:59:40;;;;;;;0.30;0.20;;;;;;;15.62;100.00;99463.28;4992793;28;20453;-56
2021/05/11 11:04:51;;;;;;;0.40;0.20;;;;;;;15.89;100.00;99449.06;4973437;28;20864;-56
2021/05/11 11:07:18;;;;;;;0.40;0.20;;;;;;;15.72;100.00;99436.75;4987631;28;20449;-56
2021/05/11 11:09:56;;;;;;;0.30;0.20;;;;;;;15.85;100.00;99440.38;4992842;28;20449;-56
2021/05/11 11:12:22;;;;;;;0.30;0.20;;;;;;;16.17;100.00;99432.06;4975539;28;20934;-56
2021/05/11 11:14:49;;;;;;;0.30;0.20;;;;;;;15.92;100.00;99431.00;4982511;28;20475;-56
2021/05/11 11:17:16;;;;;;;0.30;0.20;;;;;;;15.84;100.00;99438.66;4989972;28;20453;-56
2021/05/11 11:19:53;;;;;;;0.30;0.20;;;;;;;15.63;100.00;99426.63;4982022;28;20458;-56
2021/05/11 11:25:06;;;;;;;0.30;0.20;;;;;;;15.72;100.00;99430.53;4994865;28;20854;-56
2021/05/11 11:27:33;;;;;;;0.30;0.20;;;;;;;15.63;100.00;99434.66;4996942;28;20877;-56
2021/05/11 11:30:08;;;;;;;0.40;0.20;;;;;;;15.69;100.00;99445.84;4996601;28;20508;-55
2021/05/11 11:32:36;;;;;;;0.30;0.20;;;;;;;15.67;100.00;99439.72;4996673;28;20495;-56
2021/05/11 11:35:05;;;;;;;0.30;0.20;;;;;;;15.70;100.00;99444.88;4975929;28;20449;-56
2021/05/11 11:37:32;;;;;;;0.50;0.50;;;;;;;15.69;100.00;99436.94;4986881;28;20476;-56
2021/05/11 11:40:02;;;;;;;0.30;0.20;;;;;;;16.03;100.00;99432.94;4978687;28;21020;-56
2021/05/11 11:42:39;;;;;;;0.30;0.20;;;;;;;15.98;100.00;99438.63;4996639;28;20461;-56
2021/05/11 11:45:12;;;;;;;0.30;0.20;;;;;;;15.92;100.00;99438.16;4995898;28;20566;-56
2021/05/11 11:47:50;;;;;;;0.33;0.20;;;;;;;15.91;100.00;99436.44;4996093;28;20453;-56
2021/05/11 11:50:19;;;;;;;0.40;0.20;;;;;;;15.90;100.00;99434.72;4984754;28;20449;-56
2021/05/11 11:55:59;;;;;;;0.40;0.20;;;;;;;15.60;100.00;99426.81;4996249;28;20437;-56
2021/05/11 11:58:31;;;;;;;0.30;0.20;;;;;;;15.49;100.00;99443.53;4985508;28;20449;-56
2021/05/11 12:00:58;;;;;;;0.40;0.20;;;;;;;15.50;100.00;99468.50;4996625;28;20508;-56
2021/05/11 12:03:26;;;;;;;0.30;0.20;;;;;;;15.57;100.00;99483.22;4996912;28;20477;-56
2021/05/11 12:05:56;;;;;;;0.30;0.20;;;;;;;15.75;100.00;99486.59;4992463;28;20493;-56
2021/05/11 12:08:28;;;;;;;0.30;0.20;;;;;;;15.86;100.00;99492.16;4996065;28;20449;-56
2021/05/11 12:11:06;;;;;;;0.40;0.30;;;;;;;15.80;100.00;99495.22;4995994;28;20453;-56
2021/05/11 12:13:36;;;;;;;0.40;0.20;;;;;;;15.63;100.00;99490.94;4995968;28;20461;-56
2021/05/11 12:16:12;;;;;;;0.30;0.20;;;;;;;15.75;100.00;99492.81;4996004;28;20449;-56
2021/05/11 12:18:55;;;;;;;0.40;0.20;;;;;;;15.53;100.00;99501.31;4994103;28;20447;-56
2021/05/11 12:21:21;;;;;;;0.30;0.20;;;;;;;15.79;100.00;99498.88;4986813;28;20454;-56
2021/05/11 12:23:48;;;;;;;0.30;0.20;;;;;;;15.99;100.00;99501.13;4995309;28;20480;-56
2021/05/11 12:26:19;;;;;;;0.57;0.57;;;;;;;16.02;100.00;99492.91;4995698;28;20453;-56
2021/05/11 12:28:46;;;;;;;0.30;0.20;;;;;;;15.94;100.00;99476.47;4995771;28;20449;-56
2021/05/11 12:31:13;;;;;;;0.97;0.97;;;;;;;15.87;100.00;99475.97;4995384;28;20585;-56
2021/05/11 12:33:44;;;;;;;0.30;0.20;;;;;;;15.79;100.00;99467.56;4995353;28;20512;-56
2021/05/11 12:36:15;;;;;;;0.30;0.20;;;;;;;15.60;100.00;99459.81;4994772;28;20461;-56
2021/05/11 12:38:42;;;;;;;0.30;0.20;;;;;;;15.63;100.00;99458.78;4975771;28;20465;-56
2021/05/11 12:41:29;;;;;;;0.37;0.20;;;;;;;15.67;100.00;99449.59;4989109;28;20815;-56
2021/05/11 12:43:56;;;;;;;0.40;0.20;;;;;;;15.95;100.00;99451.38;4994922;28;20477;-57
2021/05/11 12:46:36;;;;;;;0.30;0.20;;;;;;;15.67;100.00;99450.44;4995094;28;20488;-56
2021/05/11 12:49:09;;;;;;;0.40;0.30;;;;;;;15.87;100.00;99459.03;4983835;28;20868;-56
2021/05/11 12:51:40;;;;;;;0.40;0.20;;;;;;;15.77;100.00;99461.44;4994081;28;20454;-56
2021/05/11 12:54:42;;;;;;;0.40;0.20;;;;;;;16.22;100.00;99476.41;4994687;28;20461;-56
2021/05/11 12:57:20;;;;;;;0.30;0.20;;;;;;;16.11;100.00;99476.22;4957371;28;20833;-56
2021/05/11 13:30:15;;;;;;;0.33;0.20;;;;;;;16.11;100.00;99406.50;4940554;29;20961;-56
2021/05/11 13:35:28;;;;;;;0.40;0.20;;;;;;;16.30;100.00;99411.50;4994101;28;20465;-56
2021/05/11 13:37:55;;;;;;;0.40;0.20;;;;;;;16.58;100.00;99426.63;4994182;28;20453;-56
2021/05/11 13:40:22;;;;;;;0.30;0.20;;;;;;;16.52;100.00;99422.56;4994463;28;20453;-56
2021/05/11 13:42:49;;;;;;;0.40;0.20;;;;;;;16.30;100.00;99417.75;4994231;28;20452;-56
2021/05/11 13:45:15;;;;;;;0.40;0.20;;;;;;;16.25;100.00;99427.06;4976787;28;20489;-56
2021/05/11 13:47:55;;;;;;;0.37;0.20;;;;;;;16.33;100.00;99416.69;4982923;28;20454;-56
2021/05/11 13:50:29;;;;;;;0.40;0.20;;;;;;;16.18;100.00;99410.53;4993140;28;20445;-56
2021/05/11 13:52:56;;;;;;;0.40;0.20;;;;;;;16.13;100.00;99401.91;4993507;28;20445;-56
2021/05/11 13:55:35;;;;;;;0.40;0.20;;;;;;;16.48;100.00;99404.94;4993805;28;20449;-56
2021/05/11 14:03:33;;;;;;;0.40;0.20;;;;;;;16.36;100.00;99415.63;4983959;28;20529;-56
2021/05/11 14:05:59;;;;;;;0.40;0.20;;;;;;;16.57;100.00;99419.53;4990336;28;20506;-56
2021/05/11 14:08:26;;;;;;;0.40;0.20;;;;;;;16.60;100.00;99424.72;4993396;28;20460;-56
2021/05/11 14:10:53;;;;;;;0.40;0.20;;;;;;;16.46;100.00;99417.59;4993215;28;20454;-56
2021/05/11 14:13:19;;;;;;;0.40;0.20;;;;;;;16.50;100.00;99427.16;4993174;28;20469;-56
2021/05/11 14:15:46;;;;;;;0.40;0.20;;;;;;;16.69;100.00;99423.28;4992972;28;20485;-56
2021/05/11 14:18:12;;;;;;;0.40;0.20;;;;;;;16.42;100.00;99425.94;4993271;28;20535;-56
2021/05/11 14:20:39;;;;;;;0.40;0.20;;;;;;;16.54;100.00;99419.75;4979699;28;20943;-56
2021/05/11 14:23:06;;;;;;;0.40;0.20;;;;;;;16.55;100.00;99426.84;4993179;28;20580;-56
2021/05/11 14:25:33;;;;;;;0.40;0.20;;;;;;;16.59;100.00;99423.88;4992695;28;20488;-56
2021/05/11 14:27:59;;;;;;;0.40;0.20;;;;;;;16.80;100.00;99418.03;4992927;28;20804;-56
2021/05/11 14:30:26;;;;;;;0.40;0.20;;;;;;;16.73;100.00;99411.38;4992976;28;20750;-57
2021/05/11 14:32:53;;;;;;;0.40;0.20;;;;;;;16.68;100.00;99419.72;4993133;28;20449;-56
2021/05/11 14:35:20;;;;;;;0.40;0.20;;;;;;;16.77;100.00;99415.56;4993097;28;20463;-56
2021/05/11 14:37:47;;;;;;;0.40;0.20;;;;;;;16.70;100.00;99427.66;4992970;28;20452;-56
2021/05/11 14:40:14;;;;;;;0.40;0.20;;;;;;;16.79;100.00;99422.53;4992370;28;20460;-56
2021/05/11 14:42:41;;;;;;;0.40;0.20;;;;;;;17.20;100.00;99432.25;4992788;28;20466;-56
2021/05/11 14:45:09;;;;;;;0.40;0.20;;;;;;;17.21;100.00;99425.91;4993282;28;20748;-56
2021/05/11 14:47:36;;;;;;;0.40;0.20;;;;;;;17.02;100.00;99425.50;4992969;28;20898;-56
2021/05/11 14:50:04;;;;;;;0.40;0.20;;;;;;;17.21;100.00;99431.28;4963163;28;20453;-56
2021/05/11 14:52:30;;;;;;;0.40;0.20;;;;;;;17.03;100.00;99430.75;4992921;28;20980;-56
2021/05/11 14:54:59;;;;;;;0.40;0.20;;;;;;;16.80;100.00;99428.78;4992402;28;20467;-56
2021/05/11 14:57:25;;;;;;;0.40;0.20;;;;;;;16.94;100.00;99433.19;4993171;28;20864;-57
2021/05/11 14:59:53;;;;;;;0.40;0.20;;;;;;;16.70;100.00;99435.72;4973513;28;20486;-56
2021/05/11 15:02:20;;;;;;;0.40;0.20;;;;;;;17.01;100.00;99434.50;4997249;28;20531;-58
2021/05/11 15:04:47;;;;;;;0.40;0.20;;;;;;;17.14;100.00;99433.56;4963329;28;20492;-57
2021/05/11 15:07:13;;;;;;;0.40;0.20;;;;;;;17.13;100.00;99436.31;4992484;28;20955;-57
2021/05/11 15:09:40;;;;;;;0.40;0.20;;;;;;;16.78;100.00;99434.25;4992970;28;21191;-57
2021/05/11 15:12:07;;;;;;;0.40;0.20;;;;;;;16.79;100.00;99429.75;4992600;28;20457;-57
2021/05/11 15:14:34;;;;;;;0.40;0.20;;;;;;;16.83;100.00;99433.94;4992581;28;20469;-58
2021/05/11 15:17:58;;;;;;;0.40;0.20;;;;;;;16.60;100.00;99424.72;4993179;28;20449;-57
2021/05/11 15:19:57;;;;;;;0.40;0.20;;;;;;;16.86;100.00;99431.91;4972930;28;20462;-57
2021/05/11 15:22:26;;;;;;;0.40;0.20;;;;;;;16.84;100.00;99431.13;4991801;28;20453;-57
2021/05/11 15:24:54;;;;;;;0.40;0.20;;;;;;;16.90;100.00;99437.06;4992711;28;20497;-58
2021/05/11 15:27:21;;;;;;;0.40;0.20;;;;;;;16.79;100.00;99429.75;4992020;28;20450;-57
2021/05/11 15:29:48;;;;;;;0.40;0.20;;;;;;;16.96;100.00;99442.00;4991656;28;20453;-58
2021/05/11 15:32:39;;;;;;;0.70;0.70;;;;;;;17.02;100.00;99444.28;4991654;28;20505;-58
2021/05/11 15:35:15;;;;;;;0.40;0.20;;;;;;;16.74;100.00;99448.00;4991719;28;20461;-58
2021/05/11 15:37:43;;;;;;;0.40;0.20;;;;;;;16.60;100.00;99451.56;4991418;28;20467;-58
2021/05/11 15:40:14;;;;;;;0.40;0.20;;;;;;;16.50;100.00;99451.31;4992547;28;20457;-57
2021/05/11 15:42:41;;;;;;;0.40;0.20;;;;;;;16.52;100.00;99438.66;4992248;28;20460;-57
2021/05/11 15:45:09;;;;;;;0.40;0.20;;;;;;;16.46;100.00;99440.91;4992034;28;20500;-57